sensor_id;sensor_type;location;lat;lon;timestamp;P1;durP1;ratioP1;P2;durP2;ratioP2
9304;SDS011;4690;52.422;13.486;2024-02-23T00:09:03;1.43;;;1.33;;
9304;SDS011;4690;52.422;13.486;2024-02-23T00:11:29;1.37;;;1.27;;
9304;SDS011;4690;52.422;13.486;2024-02-23T00:13:55;1.53;;;1.43;;
9304;SDS011;4690;52.422;13.486;2024-02-23T00:16:21;1.50;;;1.40;;
9304;SDS011;4690;52.422;13.486;2024-02-23T00:18:47;1.60;;;1.50;;
9304;SDS011;4690;52.422;13.486;2024-02-23T00:21:12;2.33;;;1.70;;
9304;SDS011;4690;52.422;13.486;2024-02-23T00:23:38;1.70;;;1.60;;
9304;SDS011;4690;52.422;13.486;2024-02-23T00:26:04;2.10;;;1.40;;
9304;SDS011;4690;52.422;13.486;2024-02-23T00:28:30;2.10;;;1.90;;
9304;SDS011;4690;52.422;13.486;2024-02-23T00:30:55;1.70;;;1.60;;
9304;SDS011;4690;52.422;13.486;2024-02-23T00:33:21;1.73;;;1.63;;
9304;SDS011;4690;52.422;13.486;2024-02-23T00:35:47;2.00;;;1.60;;
9304;SDS011;4690;52.422;13.486;2024-02-23T00:38:13;2.80;;;1.70;;
9304;SDS011;4690;52.422;13.486;2024-02-23T00:40:39;1.70;;;1.60;;
9304;SDS011;4690;52.422;13.486;2024-02-23T00:43:04;1.60;;;1.50;;
9304;SDS011;4690;52.422;13.486;2024-02-23T00:45:30;2.10;;;1.50;;
9304;SDS011;4690;52.422;13.486;2024-02-23T00:47:56;1.70;;;1.60;;
9304;SDS011;4690;52.422;13.486;2024-02-23T00:50:22;2.00;;;1.80;;
9304;SDS011;4690;52.422;13.486;2024-02-23T00:52:52;2.17;;;1.53;;
9304;SDS011;4690;52.422;13.486;2024-02-23T00:55:19;2.20;;;1.30;;
9304;SDS011;4690;52.422;13.486;2024-02-23T00:57:45;1.70;;;1.60;;
9304;SDS011;4690;52.422;13.486;2024-02-23T01:00:11;1.60;;;1.47;;
9304;SDS011;4690;52.422;13.486;2024-02-23T01:02:37;1.70;;;1.60;;
9304;SDS011;4690;52.422;13.486;2024-02-23T01:05:04;1.60;;;1.50;;
9304;SDS011;4690;52.422;13.486;2024-02-23T01:07:31;1.60;;;1.50;;
9304;SDS011;4690;52.422;13.486;2024-02-23T01:09:57;2.83;;;1.53;;
9304;SDS011;4690;52.422;13.486;2024-02-23T01:12:23;1.60;;;1.50;;
9304;SDS011;4690;52.422;13.486;2024-02-23T01:14:49;1.60;;;1.50;;
9304;SDS011;4690;52.422;13.486;2024-02-23T01:17:15;1.70;;;1.60;;
9304;SDS011;4690;52.422;13.486;2024-02-23T01:19:41;2.30;;;1.60;;
9304;SDS011;4690;52.422;13.486;2024-02-23T01:22:08;2.03;;;1.50;;
9304;SDS011;4690;52.422;13.486;2024-02-23T01:24:34;3.00;;;1.60;;
9304;SDS011;4690;52.422;13.486;2024-02-23T01:27:00;1.50;;;1.40;;
9304;SDS011;4690;52.422;13.486;2024-02-23T01:29:26;1.90;;;1.60;;
9304;SDS011;4690;52.422;13.486;2024-02-23T01:31:52;1.37;;;1.30;;
9304;SDS011;4690;52.422;13.486;2024-02-23T01:34:19;1.50;;;1.40;;
9304;SDS011;4690;52.422;13.486;2024-02-23T01:36:46;2.07;;;1.43;;
9304;SDS011;4690;52.422;13.486;2024-02-23T01:39:12;1.50;;;1.40;;
9304;SDS011;4690;52.422;13.486;2024-02-23T01:41:38;1.50;;;1.40;;
9304;SDS011;4690;52.422;13.486;2024-02-23T01:44:04;1.30;;;1.20;;
9304;SDS011;4690;52.422;13.486;2024-02-23T01:46:30;1.70;;;1.50;;
9304;SDS011;4690;52.422;13.486;2024-02-23T01:48:57;1.50;;;1.40;;
9304;SDS011;4690;52.422;13.486;2024-02-23T01:51:24;1.60;;;1.50;;
9304;SDS011;4690;52.422;13.486;2024-02-23T01:53:50;2.57;;;1.50;;
9304;SDS011;4690;52.422;13.486;2024-02-23T01:56:17;1.63;;;1.40;;
9304;SDS011;4690;52.422;13.486;2024-02-23T01:58:44;1.93;;;1.40;;
9304;SDS011;4690;52.422;13.486;2024-02-23T02:01:11;2.90;;;1.40;;
9304;SDS011;4690;52.422;13.486;2024-02-23T02:03:40;2.30;;;1.40;;
9304;SDS011;4690;52.422;13.486;2024-02-23T02:06:06;1.70;;;1.43;;
9304;SDS011;4690;52.422;13.486;2024-02-23T02:08:35;2.00;;;1.40;;
9304;SDS011;4690;52.422;13.486;2024-02-23T02:11:02;4.57;;;1.50;;
9304;SDS011;4690;52.422;13.486;2024-02-23T02:13:28;2.73;;;1.20;;
9304;SDS011;4690;52.422;13.486;2024-02-23T02:15:55;1.00;;;1.00;;
9304;SDS011;4690;52.422;13.486;2024-02-23T02:18:24;1.03;;;1.00;;
9304;SDS011;4690;52.422;13.486;2024-02-23T02:20:56;7.07;;;1.20;;
9304;SDS011;4690;52.422;13.486;2024-02-23T02:23:23;2.00;;;0.97;;
9304;SDS011;4690;52.422;13.486;2024-02-23T02:25:53;0.83;;;0.83;;
9304;SDS011;4690;52.422;13.486;2024-02-23T02:28:20;3.30;;;1.10;;
9304;SDS011;4690;52.422;13.486;2024-02-23T02:30:48;2.57;;;1.00;;
9304;SDS011;4690;52.422;13.486;2024-02-23T02:33:15;2.20;;;1.20;;
9304;SDS011;4690;52.422;13.486;2024-02-23T02:35:40;2.57;;;1.10;;
9304;SDS011;4690;52.422;13.486;2024-02-23T02:38:06;1.47;;;1.00;;
9304;SDS011;4690;52.422;13.486;2024-02-23T02:40:32;0.87;;;0.87;;
9304;SDS011;4690;52.422;13.486;2024-02-23T02:42:58;1.40;;;1.20;;
9304;SDS011;4690;52.422;13.486;2024-02-23T02:45:24;4.70;;;1.00;;
9304;SDS011;4690;52.422;13.486;2024-02-23T02:47:49;2.00;;;0.93;;
9304;SDS011;4690;52.422;13.486;2024-02-23T02:50:15;1.80;;;0.90;;
9304;SDS011;4690;52.422;13.486;2024-02-23T02:52:42;1.60;;;1.00;;
9304;SDS011;4690;52.422;13.486;2024-02-23T02:55:07;3.83;;;0.93;;
9304;SDS011;4690;52.422;13.486;2024-02-23T02:57:33;1.67;;;0.93;;
9304;SDS011;4690;52.422;13.486;2024-02-23T03:00:01;0.87;;;0.87;;
9304;SDS011;4690;52.422;13.486;2024-02-23T03:02:31;1.40;;;0.90;;
9304;SDS011;4690;52.422;13.486;2024-02-23T03:04:57;1.83;;;1.00;;
9304;SDS011;4690;52.422;13.486;2024-02-23T03:07:22;0.87;;;0.87;;
9304;SDS011;4690;52.422;13.486;2024-02-23T03:09:48;0.90;;;0.90;;
9304;SDS011;4690;52.422;13.486;2024-02-23T03:12:15;3.27;;;1.03;;
9304;SDS011;4690;52.422;13.486;2024-02-23T03:14:42;1.00;;;1.00;;
9304;SDS011;4690;52.422;13.486;2024-02-23T03:17:09;2.30;;;0.97;;
9304;SDS011;4690;52.422;13.486;2024-02-23T03:19:35;1.10;;;1.00;;
9304;SDS011;4690;52.422;13.486;2024-02-23T03:22:01;1.27;;;1.00;;
9304;SDS011;4690;52.422;13.486;2024-02-23T03:24:28;2.60;;;1.20;;
9304;SDS011;4690;52.422;13.486;2024-02-23T03:26:53;1.00;;;0.90;;
9304;SDS011;4690;52.422;13.486;2024-02-23T03:29:20;1.87;;;1.00;;
9304;SDS011;4690;52.422;13.486;2024-02-23T03:31:49;3.13;;;0.90;;
9304;SDS011;4690;52.422;13.486;2024-02-23T03:34:16;1.33;;;1.10;;
9304;SDS011;4690;52.422;13.486;2024-02-23T03:36:42;1.10;;;1.00;;
9304;SDS011;4690;52.422;13.486;2024-02-23T03:39:08;1.10;;;0.80;;
9304;SDS011;4690;52.422;13.486;2024-02-23T03:41:34;2.53;;;0.90;;
9304;SDS011;4690;52.422;13.486;2024-02-23T03:43:59;1.23;;;1.00;;
9304;SDS011;4690;52.422;13.486;2024-02-23T03:46:25;1.63;;;1.00;;
9304;SDS011;4690;52.422;13.486;2024-02-23T03:48:51;0.97;;;0.90;;
9304;SDS011;4690;52.422;13.486;2024-02-23T03:51:17;1.20;;;1.10;;
9304;SDS011;4690;52.422;13.486;2024-02-23T03:53:43;1.33;;;1.00;;
9304;SDS011;4690;52.422;13.486;2024-02-23T03:56:09;2.77;;;1.00;;
9304;SDS011;4690;52.422;13.486;2024-02-23T03:58:35;1.00;;;0.93;;
9304;SDS011;4690;52.422;13.486;2024-02-23T04:01:00;1.03;;;0.97;;
9304;SDS011;4690;52.422;13.486;2024-02-23T04:03:26;1.20;;;1.10;;
9304;SDS011;4690;52.422;13.486;2024-02-23T04:05:52;1.83;;;1.13;;
9304;SDS011;4690;52.422;13.486;2024-02-23T04:08:17;1.27;;;0.90;;
9304;SDS011;4690;52.422;13.486;2024-02-23T04:10:43;2.10;;;1.10;;
9304;SDS011;4690;52.422;13.486;2024-02-23T04:13:09;1.23;;;0.93;;
9304;SDS011;4690;52.422;13.486;2024-02-23T04:15:38;1.80;;;1.00;;
9304;SDS011;4690;52.422;13.486;2024-02-23T04:18:05;1.10;;;1.03;;
9304;SDS011;4690;52.422;13.486;2024-02-23T04:20:31;2.23;;;0.90;;
9304;SDS011;4690;52.422;13.486;2024-02-23T04:22:58;2.10;;;1.30;;
9304;SDS011;4690;52.422;13.486;2024-02-23T04:25:24;1.83;;;0.90;;
9304;SDS011;4690;52.422;13.486;2024-02-23T04:27:50;1.37;;;1.00;;
9304;SDS011;4690;52.422;13.486;2024-02-23T04:30:15;1.40;;;1.00;;
9304;SDS011;4690;52.422;13.486;2024-02-23T04:32:41;2.87;;;1.17;;
9304;SDS011;4690;52.422;13.486;2024-02-23T04:35:07;1.43;;;1.10;;
9304;SDS011;4690;52.422;13.486;2024-02-23T04:37:33;0.80;;;0.80;;
9304;SDS011;4690;52.422;13.486;2024-02-23T04:39:59;1.00;;;0.93;;
9304;SDS011;4690;52.422;13.486;2024-02-23T04:42:25;0.90;;;0.90;;
9304;SDS011;4690;52.422;13.486;2024-02-23T04:44:51;1.90;;;1.00;;
9304;SDS011;4690;52.422;13.486;2024-02-23T04:47:19;1.60;;;1.00;;
9304;SDS011;4690;52.422;13.486;2024-02-23T04:49:45;2.33;;;0.97;;
9304;SDS011;4690;52.422;13.486;2024-02-23T04:52:11;2.13;;;1.07;;
9304;SDS011;4690;52.422;13.486;2024-02-23T04:54:37;1.93;;;0.90;;
9304;SDS011;4690;52.422;13.486;2024-02-23T04:57:03;1.83;;;1.03;;
9304;SDS011;4690;52.422;13.486;2024-02-23T04:59:28;1.27;;;1.03;;
9304;SDS011;4690;52.422;13.486;2024-02-23T05:01:56;0.80;;;0.80;;
9304;SDS011;4690;52.422;13.486;2024-02-23T05:04:22;1.47;;;1.00;;
9304;SDS011;4690;52.422;13.486;2024-02-23T05:06:48;2.53;;;1.00;;
9304;SDS011;4690;52.422;13.486;2024-02-23T05:09:14;1.63;;;1.00;;
9304;SDS011;4690;52.422;13.486;2024-02-23T05:11:39;1.90;;;1.10;;
9304;SDS011;4690;52.422;13.486;2024-02-23T05:14:05;2.00;;;0.90;;
9304;SDS011;4690;52.422;13.486;2024-02-23T05:16:31;0.90;;;0.90;;
9304;SDS011;4690;52.422;13.486;2024-02-23T05:18:57;1.30;;;1.00;;
9304;SDS011;4690;52.422;13.486;2024-02-23T05:21:23;2.80;;;0.90;;
9304;SDS011;4690;52.422;13.486;2024-02-23T05:23:48;1.20;;;1.10;;
9304;SDS011;4690;52.422;13.486;2024-02-23T05:26:14;1.30;;;0.87;;
9304;SDS011;4690;52.422;13.486;2024-02-23T05:28:40;1.40;;;0.90;;
9304;SDS011;4690;52.422;13.486;2024-02-23T05:31:06;0.97;;;0.97;;
9304;SDS011;4690;52.422;13.486;2024-02-23T05:33:34;2.40;;;1.00;;
9304;SDS011;4690;52.422;13.486;2024-02-23T05:35:59;1.10;;;0.90;;
9304;SDS011;4690;52.422;13.486;2024-02-23T05:38:25;0.80;;;0.80;;
9304;SDS011;4690;52.422;13.486;2024-02-23T05:40:51;1.00;;;0.90;;
9304;SDS011;4690;52.422;13.486;2024-02-23T05:43:17;1.47;;;0.90;;
9304;SDS011;4690;52.422;13.486;2024-02-23T05:45:42;2.30;;;2.10;;
9304;SDS011;4690;52.422;13.486;2024-02-23T05:48:10;3.00;;;1.40;;
9304;SDS011;4690;52.422;13.486;2024-02-23T05:50:36;0.80;;;0.80;;
9304;SDS011;4690;52.422;13.486;2024-02-23T05:53:03;2.23;;;1.00;;
9304;SDS011;4690;52.422;13.486;2024-02-23T05:55:29;1.00;;;1.00;;
9304;SDS011;4690;52.422;13.486;2024-02-23T05:57:55;1.53;;;1.00;;
9304;SDS011;4690;52.422;13.486;2024-02-23T06:00:21;1.10;;;1.00;;
9304;SDS011;4690;52.422;13.486;2024-02-23T06:02:47;0.80;;;0.80;;
9304;SDS011;4690;52.422;13.486;2024-02-23T06:05:13;0.90;;;0.90;;
9304;SDS011;4690;52.422;13.486;2024-02-23T06:07:39;0.90;;;0.90;;
9304;SDS011;4690;52.422;13.486;2024-02-23T06:10:06;0.90;;;0.90;;
9304;SDS011;4690;52.422;13.486;2024-02-23T06:12:32;0.97;;;0.97;;
9304;SDS011;4690;52.422;13.486;2024-02-23T06:14:58;0.90;;;0.90;;
9304;SDS011;4690;52.422;13.486;2024-02-23T06:17:24;1.00;;;0.90;;
9304;SDS011;4690;52.422;13.486;2024-02-23T06:19:50;1.07;;;0.90;;
9304;SDS011;4690;52.422;13.486;2024-02-23T06:22:18;1.90;;;0.90;;
9304;SDS011;4690;52.422;13.486;2024-02-23T06:24:46;0.90;;;0.90;;
9304;SDS011;4690;52.422;13.486;2024-02-23T06:27:12;0.90;;;0.90;;
9304;SDS011;4690;52.422;13.486;2024-02-23T06:29:38;2.40;;;0.90;;
9304;SDS011;4690;52.422;13.486;2024-02-23T06:32:04;1.07;;;0.97;;
9304;SDS011;4690;52.422;13.486;2024-02-23T06:34:30;0.90;;;0.90;;
9304;SDS011;4690;52.422;13.486;2024-02-23T06:36:56;1.10;;;1.00;;
9304;SDS011;4690;52.422;13.486;2024-02-23T06:39:22;1.30;;;1.20;;
9304;SDS011;4690;52.422;13.486;2024-02-23T06:41:48;1.37;;;1.00;;
9304;SDS011;4690;52.422;13.486;2024-02-23T06:44:14;2.17;;;1.13;;
9304;SDS011;4690;52.422;13.486;2024-02-23T06:46:40;1.37;;;0.90;;
9304;SDS011;4690;52.422;13.486;2024-02-23T06:49:06;1.10;;;1.00;;
9304;SDS011;4690;52.422;13.486;2024-02-23T06:51:34;2.40;;;0.90;;
9304;SDS011;4690;52.422;13.486;2024-02-23T06:54:00;1.20;;;0.90;;
9304;SDS011;4690;52.422;13.486;2024-02-23T06:56:25;1.20;;;1.00;;
9304;SDS011;4690;52.422;13.486;2024-02-23T06:58:51;0.97;;;0.97;;
9304;SDS011;4690;52.422;13.486;2024-02-23T07:01:17;1.83;;;1.00;;
9304;SDS011;4690;52.422;13.486;2024-02-23T07:03:45;1.13;;;1.10;;
9304;SDS011;4690;52.422;13.486;2024-02-23T07:06:11;1.87;;;1.40;;
9304;SDS011;4690;52.422;13.486;2024-02-23T07:08:36;1.70;;;1.23;;
9304;SDS011;4690;52.422;13.486;2024-02-23T07:11:02;0.90;;;0.90;;
9304;SDS011;4690;52.422;13.486;2024-02-23T07:13:28;0.97;;;0.90;;
9304;SDS011;4690;52.422;13.486;2024-02-23T07:15:55;0.90;;;0.90;;
9304;SDS011;4690;52.422;13.486;2024-02-23T07:18:21;1.00;;;1.00;;
9304;SDS011;4690;52.422;13.486;2024-02-23T07:20:47;0.87;;;0.87;;
9304;SDS011;4690;52.422;13.486;2024-02-23T07:23:13;1.10;;;0.80;;
9304;SDS011;4690;52.422;13.486;2024-02-23T07:25:41;1.13;;;1.00;;
9304;SDS011;4690;52.422;13.486;2024-02-23T07:28:07;1.13;;;1.00;;
9304;SDS011;4690;52.422;13.486;2024-02-23T07:30:33;1.10;;;1.00;;
9304;SDS011;4690;52.422;13.486;2024-02-23T07:33:00;1.17;;;1.10;;
9304;SDS011;4690;52.422;13.486;2024-02-23T07:35:26;1.30;;;1.20;;
9304;SDS011;4690;52.422;13.486;2024-02-23T07:37:52;0.90;;;0.90;;
9304;SDS011;4690;52.422;13.486;2024-02-23T07:40:20;1.60;;;1.07;;
9304;SDS011;4690;52.422;13.486;2024-02-23T07:42:46;0.80;;;0.80;;
9304;SDS011;4690;52.422;13.486;2024-02-23T07:45:12;0.90;;;0.90;;
9304;SDS011;4690;52.422;13.486;2024-02-23T07:47:38;1.10;;;1.10;;
9304;SDS011;4690;52.422;13.486;2024-02-23T07:50:03;1.10;;;1.00;;
9304;SDS011;4690;52.422;13.486;2024-02-23T07:52:30;1.00;;;1.00;;
9304;SDS011;4690;52.422;13.486;2024-02-23T07:54:56;1.43;;;1.00;;
9304;SDS011;4690;52.422;13.486;2024-02-23T07:57:21;1.83;;;1.10;;
9304;SDS011;4690;52.422;13.486;2024-02-23T07:59:47;0.90;;;0.90;;
9304;SDS011;4690;52.422;13.486;2024-02-23T08:02:14;1.03;;;1.00;;
9304;SDS011;4690;52.422;13.486;2024-02-23T08:04:40;0.97;;;0.97;;
9304;SDS011;4690;52.422;13.486;2024-02-23T08:07:07;1.13;;;1.00;;
9304;SDS011;4690;52.422;13.486;2024-02-23T08:09:33;2.20;;;1.00;;
9304;SDS011;4690;52.422;13.486;2024-02-23T08:11:59;1.50;;;1.10;;
9304;SDS011;4690;52.422;13.486;2024-02-23T08:14:24;1.07;;;0.97;;
9304;SDS011;4690;52.422;13.486;2024-02-23T08:16:50;4.20;;;1.20;;
9304;SDS011;4690;52.422;13.486;2024-02-23T08:19:16;0.83;;;0.80;;
9304;SDS011;4690;52.422;13.486;2024-02-23T08:21:42;3.77;;;0.93;;
9304;SDS011;4690;52.422;13.486;2024-02-23T08:24:08;4.13;;;1.20;;
9304;SDS011;4690;52.422;13.486;2024-02-23T08:26:34;1.50;;;0.83;;
9304;SDS011;4690;52.422;13.486;2024-02-23T08:29:00;3.17;;;0.83;;
9304;SDS011;4690;52.422;13.486;2024-02-23T08:31:26;1.03;;;0.80;;
9304;SDS011;4690;52.422;13.486;2024-02-23T08:33:52;1.20;;;1.00;;
9304;SDS011;4690;52.422;13.486;2024-02-23T08:36:17;2.83;;;1.10;;
9304;SDS011;4690;52.422;13.486;2024-02-23T08:38:43;0.90;;;0.90;;
9304;SDS011;4690;52.422;13.486;2024-02-23T08:41:09;1.17;;;1.00;;
9304;SDS011;4690;52.422;13.486;2024-02-23T08:43:34;0.93;;;0.93;;
9304;SDS011;4690;52.422;13.486;2024-02-23T08:46:01;1.50;;;0.93;;
9304;SDS011;4690;52.422;13.486;2024-02-23T08:48:26;2.10;;;1.00;;
9304;SDS011;4690;52.422;13.486;2024-02-23T08:50:53;1.43;;;0.90;;
9304;SDS011;4690;52.422;13.486;2024-02-23T08:53:19;1.60;;;1.50;;
9304;SDS011;4690;52.422;13.486;2024-02-23T08:55:45;3.67;;;3.00;;
9304;SDS011;4690;52.422;13.486;2024-02-23T08:58:11;3.47;;;2.97;;
9304;SDS011;4690;52.422;13.486;2024-02-23T09:00:36;1.77;;;1.40;;
9304;SDS011;4690;52.422;13.486;2024-02-23T09:03:02;1.40;;;1.30;;
9304;SDS011;4690;52.422;13.486;2024-02-23T09:05:28;2.03;;;1.80;;
9304;SDS011;4690;52.422;13.486;2024-02-23T09:07:54;2.03;;;1.20;;
9304;SDS011;4690;52.422;13.486;2024-02-23T09:10:20;1.43;;;1.30;;
9304;SDS011;4690;52.422;13.486;2024-02-23T09:12:46;1.77;;;1.40;;
9304;SDS011;4690;52.422;13.486;2024-02-23T09:15:12;1.40;;;1.30;;
9304;SDS011;4690;52.422;13.486;2024-02-23T09:17:39;2.30;;;1.10;;
9304;SDS011;4690;52.422;13.486;2024-02-23T09:20:06;2.77;;;0.90;;
9304;SDS011;4690;52.422;13.486;2024-02-23T09:22:33;1.33;;;1.00;;
9304;SDS011;4690;52.422;13.486;2024-02-23T09:24:59;2.10;;;1.33;;
9304;SDS011;4690;52.422;13.486;2024-02-23T09:27:24;2.57;;;1.20;;
9304;SDS011;4690;52.422;13.486;2024-02-23T09:29:50;1.60;;;1.23;;
9304;SDS011;4690;52.422;13.486;2024-02-23T09:32:16;2.13;;;1.07;;
9304;SDS011;4690;52.422;13.486;2024-02-23T09:34:42;1.23;;;1.10;;
9304;SDS011;4690;52.422;13.486;2024-02-23T09:37:08;1.60;;;1.07;;
9304;SDS011;4690;52.422;13.486;2024-02-23T09:39:33;0.90;;;0.90;;
9304;SDS011;4690;52.422;13.486;2024-02-23T09:41:59;1.83;;;1.20;;
9304;SDS011;4690;52.422;13.486;2024-02-23T09:44:29;1.13;;;0.93;;
9304;SDS011;4690;52.422;13.486;2024-02-23T09:47:01;1.20;;;0.90;;
9304;SDS011;4690;52.422;13.486;2024-02-23T09:49:38;1.47;;;1.00;;
9304;SDS011;4690;52.422;13.486;2024-02-23T09:52:08;1.20;;;0.93;;
9304;SDS011;4690;52.422;13.486;2024-02-23T09:54:38;1.33;;;1.00;;
9304;SDS011;4690;52.422;13.486;2024-02-23T09:57:06;1.47;;;1.20;;
9304;SDS011;4690;52.422;13.486;2024-02-23T09:59:37;1.67;;;1.00;;
9304;SDS011;4690;52.422;13.486;2024-02-23T10:02:09;0.80;;;0.80;;
9304;SDS011;4690;52.422;13.486;2024-02-23T10:04:40;0.90;;;0.90;;
9304;SDS011;4690;52.422;13.486;2024-02-23T10:07:14;0.93;;;0.90;;
9304;SDS011;4690;52.422;13.486;2024-02-23T10:09:43;1.70;;;1.20;;
9304;SDS011;4690;52.422;13.486;2024-02-23T10:12:08;0.90;;;0.90;;
9304;SDS011;4690;52.422;13.486;2024-02-23T10:14:34;1.93;;;1.00;;
9304;SDS011;4690;52.422;13.486;2024-02-23T10:17:00;2.33;;;1.30;;
9304;SDS011;4690;52.422;13.486;2024-02-23T10:19:27;1.77;;;1.30;;
9304;SDS011;4690;52.422;13.486;2024-02-23T10:21:54;1.10;;;1.00;;
9304;SDS011;4690;52.422;13.486;2024-02-23T10:24:22;0.93;;;0.90;;
9304;SDS011;4690;52.422;13.486;2024-02-23T10:26:49;1.10;;;1.00;;
9304;SDS011;4690;52.422;13.486;2024-02-23T10:29:15;1.97;;;1.23;;
9304;SDS011;4690;52.422;13.486;2024-02-23T10:31:40;1.40;;;1.07;;
9304;SDS011;4690;52.422;13.486;2024-02-23T10:34:08;1.47;;;1.03;;
9304;SDS011;4690;52.422;13.486;2024-02-23T10:36:37;2.60;;;1.10;;
9304;SDS011;4690;52.422;13.486;2024-02-23T10:39:07;2.40;;;1.03;;
9304;SDS011;4690;52.422;13.486;2024-02-23T10:41:35;2.70;;;1.20;;
9304;SDS011;4690;52.422;13.486;2024-02-23T10:44:04;2.43;;;1.07;;
9304;SDS011;4690;52.422;13.486;2024-02-23T10:46:31;1.77;;;1.17;;
9304;SDS011;4690;52.422;13.486;2024-02-23T10:48:58;1.60;;;1.10;;
9304;SDS011;4690;52.422;13.486;2024-02-23T10:51:26;1.20;;;1.00;;
9304;SDS011;4690;52.422;13.486;2024-02-23T10:53:53;1.20;;;1.00;;
9304;SDS011;4690;52.422;13.486;2024-02-23T10:56:20;3.07;;;1.20;;
9304;SDS011;4690;52.422;13.486;2024-02-23T10:58:47;2.53;;;1.00;;
9304;SDS011;4690;52.422;13.486;2024-02-23T11:01:13;2.37;;;1.20;;
9304;SDS011;4690;52.422;13.486;2024-02-23T11:03:42;2.80;;;1.10;;
9304;SDS011;4690;52.422;13.486;2024-02-23T11:06:13;1.03;;;0.93;;
9304;SDS011;4690;52.422;13.486;2024-02-23T11:08:41;4.17;;;1.20;;
9304;SDS011;4690;52.422;13.486;2024-02-23T11:11:10;1.23;;;1.13;;
9304;SDS011;4690;52.422;13.486;2024-02-23T11:13:39;2.13;;;1.00;;
9304;SDS011;4690;52.422;13.486;2024-02-23T11:16:06;1.63;;;1.40;;
9304;SDS011;4690;52.422;13.486;2024-02-23T11:18:34;1.50;;;1.27;;
9304;SDS011;4690;52.422;13.486;2024-02-23T11:21:02;1.37;;;1.20;;
9304;SDS011;4690;52.422;13.486;2024-02-23T11:23:42;1.50;;;1.27;;
9304;SDS011;4690;52.422;13.486;2024-02-23T11:26:10;1.73;;;1.30;;
9304;SDS011;4690;52.422;13.486;2024-02-23T11:31:20;3.30;;;1.40;;
9304;SDS011;4690;52.422;13.486;2024-02-23T11:33:52;3.60;;;1.33;;
9304;SDS011;4690;52.422;13.486;2024-02-23T11:36:40;1.43;;;1.07;;
9304;SDS011;4690;52.422;13.486;2024-02-23T11:39:05;1.80;;;1.33;;
9304;SDS011;4690;52.422;13.486;2024-02-23T11:41:31;3.03;;;1.37;;
9304;SDS011;4690;52.422;13.486;2024-02-23T11:43:57;3.47;;;1.23;;
9304;SDS011;4690;52.422;13.486;2024-02-23T11:46:25;2.03;;;1.10;;
9304;SDS011;4690;52.422;13.486;2024-02-23T11:48:51;1.07;;;0.97;;
9304;SDS011;4690;52.422;13.486;2024-02-23T11:51:20;0.97;;;0.90;;
9304;SDS011;4690;52.422;13.486;2024-02-23T11:53:48;3.70;;;1.07;;
9304;SDS011;4690;52.422;13.486;2024-02-23T11:56:15;1.20;;;1.10;;
9304;SDS011;4690;52.422;13.486;2024-02-23T11:58:41;2.20;;;1.23;;
9304;SDS011;4690;52.422;13.486;2024-02-23T12:01:07;1.90;;;1.30;;
9304;SDS011;4690;52.422;13.486;2024-02-23T12:03:33;4.13;;;1.40;;
9304;SDS011;4690;52.422;13.486;2024-02-23T12:06:02;1.57;;;1.20;;
9304;SDS011;4690;52.422;13.486;2024-02-23T12:08:31;1.73;;;1.20;;
9304;SDS011;4690;52.422;13.486;2024-02-23T12:11:03;3.07;;;1.17;;
9304;SDS011;4690;52.422;13.486;2024-02-23T12:13:32;2.30;;;1.10;;
9304;SDS011;4690;52.422;13.486;2024-02-23T12:15:58;2.03;;;1.30;;
9304;SDS011;4690;52.422;13.486;2024-02-23T12:18:24;1.57;;;1.10;;
9304;SDS011;4690;52.422;13.486;2024-02-23T12:20:58;1.10;;;1.00;;
9304;SDS011;4690;52.422;13.486;2024-02-23T12:23:42;3.37;;;1.03;;
9304;SDS011;4690;52.422;13.486;2024-02-23T12:26:11;1.50;;;1.10;;
9304;SDS011;4690;52.422;13.486;2024-02-23T12:28:39;1.43;;;1.13;;
9304;SDS011;4690;52.422;13.486;2024-02-23T12:31:05;1.17;;;1.07;;
9304;SDS011;4690;52.422;13.486;2024-02-23T12:33:32;1.40;;;1.10;;
9304;SDS011;4690;52.422;13.486;2024-02-23T12:36:04;2.13;;;1.10;;
9304;SDS011;4690;52.422;13.486;2024-02-23T12:38:31;1.57;;;1.20;;
9304;SDS011;4690;52.422;13.486;2024-02-23T12:40:57;1.10;;;1.00;;
9304;SDS011;4690;52.422;13.486;2024-02-23T12:43:25;1.50;;;1.13;;
9304;SDS011;4690;52.422;13.486;2024-02-23T12:45:54;2.30;;;1.30;;
9304;SDS011;4690;52.422;13.486;2024-02-23T12:48:21;1.77;;;1.20;;
9304;SDS011;4690;52.422;13.486;2024-02-23T12:50:48;3.90;;;1.30;;
9304;SDS011;4690;52.422;13.486;2024-02-23T12:56:07;2.53;;;1.13;;
9304;SDS011;4690;52.422;13.486;2024-02-23T12:58:40;2.10;;;1.50;;
9304;SDS011;4690;52.422;13.486;2024-02-23T13:01:08;1.47;;;1.10;;
9304;SDS011;4690;52.422;13.486;2024-02-23T13:03:35;1.40;;;1.30;;
9304;SDS011;4690;52.422;13.486;2024-02-23T13:06:03;2.80;;;1.53;;
9304;SDS011;4690;52.422;13.486;2024-02-23T13:08:30;1.63;;;1.20;;
9304;SDS011;4690;52.422;13.486;2024-02-23T13:10:56;1.50;;;1.40;;
9304;SDS011;4690;52.422;13.486;2024-02-23T13:13:22;2.43;;;1.50;;
9304;SDS011;4690;52.422;13.486;2024-02-23T13:15:49;2.07;;;1.20;;
9304;SDS011;4690;52.422;13.486;2024-02-23T13:18:17;1.70;;;1.30;;
9304;SDS011;4690;52.422;13.486;2024-02-23T13:20:44;2.97;;;1.37;;
9304;SDS011;4690;52.422;13.486;2024-02-23T13:23:10;3.13;;;1.30;;
9304;SDS011;4690;52.422;13.486;2024-02-23T13:25:40;2.07;;;1.50;;
9304;SDS011;4690;52.422;13.486;2024-02-23T13:28:07;1.67;;;1.20;;
9304;SDS011;4690;52.422;13.486;2024-02-23T13:30:34;1.90;;;1.40;;
9304;SDS011;4690;52.422;13.486;2024-02-23T13:33:02;1.73;;;1.20;;
9304;SDS011;4690;52.422;13.486;2024-02-23T13:35:28;1.57;;;1.20;;
9304;SDS011;4690;52.422;13.486;2024-02-23T13:37:54;1.60;;;1.47;;
9304;SDS011;4690;52.422;13.486;2024-02-23T13:40:20;1.93;;;1.23;;
9304;SDS011;4690;52.422;13.486;2024-02-23T13:42:47;2.10;;;1.30;;
9304;SDS011;4690;52.422;13.486;2024-02-23T13:45:17;2.17;;;1.37;;
9304;SDS011;4690;52.422;13.486;2024-02-23T13:47:54;1.90;;;1.20;;
9304;SDS011;4690;52.422;13.486;2024-02-23T13:50:25;1.60;;;1.20;;
9304;SDS011;4690;52.422;13.486;2024-02-23T13:52:51;4.10;;;1.43;;
9304;SDS011;4690;52.422;13.486;2024-02-23T13:55:18;2.47;;;1.50;;
9304;SDS011;4690;52.422;13.486;2024-02-23T13:57:47;2.43;;;1.37;;
9304;SDS011;4690;52.422;13.486;2024-02-23T14:00:14;1.83;;;1.30;;
9304;SDS011;4690;52.422;13.486;2024-02-23T14:02:41;2.90;;;1.50;;
9304;SDS011;4690;52.422;13.486;2024-02-23T14:05:08;2.50;;;1.37;;
9304;SDS011;4690;52.422;13.486;2024-02-23T14:07:34;2.63;;;1.40;;
9304;SDS011;4690;52.422;13.486;2024-02-23T14:10:00;3.63;;;1.40;;
9304;SDS011;4690;52.422;13.486;2024-02-23T14:12:27;3.07;;;1.70;;
9304;SDS011;4690;52.422;13.486;2024-02-23T14:14:54;3.60;;;1.50;;
9304;SDS011;4690;52.422;13.486;2024-02-23T14:17:20;1.73;;;1.30;;
9304;SDS011;4690;52.422;13.486;2024-02-23T14:19:46;3.40;;;1.50;;
9304;SDS011;4690;52.422;13.486;2024-02-23T14:22:12;5.90;;;1.50;;
9304;SDS011;4690;52.422;13.486;2024-02-23T14:24:38;4.43;;;1.50;;
9304;SDS011;4690;52.422;13.486;2024-02-23T14:27:04;1.97;;;1.40;;
9304;SDS011;4690;52.422;13.486;2024-02-23T14:29:29;1.53;;;1.37;;
9304;SDS011;4690;52.422;13.486;2024-02-23T14:31:55;2.50;;;1.60;;
9304;SDS011;4690;52.422;13.486;2024-02-23T14:34:21;1.67;;;1.40;;
9304;SDS011;4690;52.422;13.486;2024-02-23T14:36:48;2.50;;;1.40;;
9304;SDS011;4690;52.422;13.486;2024-02-23T14:39:15;3.47;;;1.47;;
9304;SDS011;4690;52.422;13.486;2024-02-23T14:41:41;2.03;;;1.40;;
9304;SDS011;4690;52.422;13.486;2024-02-23T14:44:07;2.47;;;1.60;;
9304;SDS011;4690;52.422;13.486;2024-02-23T14:46:33;2.10;;;1.60;;
9304;SDS011;4690;52.422;13.486;2024-02-23T14:48:59;1.97;;;1.63;;
9304;SDS011;4690;52.422;13.486;2024-02-23T14:51:25;2.03;;;1.30;;
9304;SDS011;4690;52.422;13.486;2024-02-23T14:53:50;1.63;;;1.40;;
9304;SDS011;4690;52.422;13.486;2024-02-23T14:56:16;2.83;;;1.80;;
9304;SDS011;4690;52.422;13.486;2024-02-23T14:58:42;2.27;;;1.50;;
9304;SDS011;4690;52.422;13.486;2024-02-23T15:01:07;2.17;;;1.63;;
9304;SDS011;4690;52.422;13.486;2024-02-23T15:03:33;1.90;;;1.70;;
9304;SDS011;4690;52.422;13.486;2024-02-23T15:05:59;2.13;;;1.70;;
9304;SDS011;4690;52.422;13.486;2024-02-23T15:08:26;3.00;;;1.50;;
9304;SDS011;4690;52.422;13.486;2024-02-23T15:10:52;1.80;;;1.40;;